Time;durP1;ratioP1;P1;durP2;ratioP2;P2;SDS_P1;SDS_P2;PMS_P1;PMS_P2;Temp;Humidity;BMP_temperature;BMP_pressure;BME280_temperature;BME280_humidity;BME280_pressure;Samples;Min_cycle;Max_cycle;Signal;HPM_P1;HPM_P2
2023/12/28 00:00:19;;;;;;;6.78;6.22;;;3.70;99.90;;;;;;5065799;28;20226;-76
2023/12/28 00:02:46;;;;;;;6.22;5.70;;;3.70;99.90;;;;;;5060197;28;20190;-78
2023/12/28 00:05:16;;;;;;;6.50;6.00;;;3.70;99.90;;;;;;5060243;28;20221;-77
2023/12/28 00:07:43;;;;;;;7.20;6.60;;;3.80;99.90;;;;;;5060243;28;20202;-78
2023/12/28 00:10:11;;;;;;;7.90;7.20;;;3.90;99.90;;;;;;5063716;28;20244;-77
2023/12/28 00:12:38;;;;;;;7.85;7.05;;;3.90;99.90;;;;;;5063815;28;20593;-76
2023/12/28 00:15:05;;;;;;;7.32;6.72;;;3.80;99.90;;;;;;5062170;28;20217;-78
2023/12/28 00:17:33;;;;;;;7.40;6.80;;;3.80;99.90;;;;;;5065091;28;20378;-77
2023/12/28 00:20:00;;;;;;;6.70;6.10;;;3.80;99.90;;;;;;5063142;28;20283;-78
2023/12/28 00:22:28;;;;;;;7.22;6.53;;;3.90;99.90;;;;;;5063256;28;20221;-76
2023/12/28 00:24:55;;;;;;;6.68;6.07;;;3.90;99.90;;;;;;5062080;28;20959;-77
2023/12/28 00:27:22;;;;;;;6.93;6.32;;;3.90;99.90;;;;;;5057859;28;20213;-76
2023/12/28 00:29:50;;;;;;;7.65;6.95;;;4.00;99.90;;;;;;5062226;28;20221;-77
2023/12/28 00:32:17;;;;;;;7.30;6.60;;;4.00;99.90;;;;;;5060277;28;20225;-76
2023/12/28 00:34:44;;;;;;;7.20;6.50;;;4.00;99.90;;;;;;5060785;28;20236;-77
2023/12/28 00:37:11;;;;;;;7.47;6.78;;;3.90;99.90;;;;;;5061930;28;20206;-76
2023/12/28 00:39:40;;;;;;;6.95;6.30;;;3.90;99.90;;;;;;5061710;28;20229;-75
2023/12/28 00:42:07;;;;;;;6.78;6.18;;;3.90;99.90;;;;;;5057834;28;20199;-76
2023/12/28 00:44:34;;;;;;;7.10;6.50;;;3.90;99.90;;;;;;5060290;28;20206;-77
2023/12/28 00:47:01;;;;;;;7.25;6.55;;;3.90;99.90;;;;;;5062011;28;20206;-76
2023/12/28 00:49:29;;;;;;;7.03;6.50;;;3.90;99.90;;;;;;5060206;28;21189;-77
2023/12/28 00:51:56;;;;;;;7.38;6.78;;;3.90;99.90;;;;;;5060260;28;20280;-78
2023/12/28 00:54:23;;;;;;;7.20;6.55;;;3.90;99.90;;;;;;5061523;28;20206;-77
2023/12/28 00:56:52;;;;;;;7.45;6.82;;;3.80;99.90;;;;;;5060503;28;20293;-78
2023/12/28 00:59:19;;;;;;;6.97;6.38;;;3.80;99.90;;;;;;5059873;28;20226;-78
2023/12/28 01:01:46;;;;;;;6.85;6.25;;;3.80;99.90;;;;;;5060296;28;20225;-77
2023/12/28 01:04:13;;;;;;;7.40;6.80;;;3.80;99.90;;;;;;5061173;28;20293;-77
2023/12/28 01:06:40;;;;;;;7.45;6.75;;;3.80;99.90;;;;;;5059860;28;20218;-77
2023/12/28 01:09:07;;;;;;;7.18;6.57;;;3.70;99.90;;;;;;5061482;28;20221;-77
2023/12/28 01:11:35;;;;;;;7.25;6.65;;;3.70;99.90;;;;;;5059912;28;20222;-78
2023/12/28 01:14:04;;;;;;;6.65;6.05;;;3.70;99.90;;;;;;5056770;28;20213;-76
2023/12/28 01:16:31;;;;;;;6.22;5.72;;;3.70;99.90;;;;;;5060694;28;20221;-76
2023/12/28 01:18:58;;;;;;;6.03;5.53;;;3.70;99.90;;;;;;5057698;28;20222;-76
2023/12/28 01:21:26;;;;;;;6.97;6.38;;;3.70;99.90;;;;;;5058675;28;20226;-77
2023/12/28 01:23:54;;;;;;;6.35;5.85;;;3.70;99.90;;;;;;5059398;28;20205;-77
2023/12/28 01:26:21;;;;;;;5.72;5.22;;;3.70;99.90;;;;;;5058942;28;20305;-76
2023/12/28 01:28:48;;;;;;;7.03;6.43;;;3.70;99.90;;;;;;5056508;28;20226;-78
2023/12/28 01:31:17;;;;;;;6.72;6.22;;;3.70;99.90;;;;;;5058487;28;20222;-76
2023/12/28 01:33:44;;;;;;;7.35;6.75;;;3.80;99.90;;;;;;5055642;28;20788;-76
2023/12/28 01:36:18;;;;;;;6.88;6.18;;;3.70;99.90;;;;;;5060117;28;20228;-77
2023/12/28 01:38:46;;;;;;;6.68;6.13;;;3.80;99.90;;;;;;5060418;28;20916;-76
2023/12/28 01:41:15;;;;;;;6.63;6.13;;;3.80;99.90;;;;;;5058838;28;20227;-77
2023/12/28 01:43:42;;;;;;;6.80;6.20;;;3.80;99.90;;;;;;5058488;28;20289;-77
2023/12/28 01:46:14;;;;;;;6.38;5.78;;;3.80;99.90;;;;;;5058812;28;20789;-77
2023/12/28 01:48:45;;;;;;;6.75;6.10;;;3.90;99.90;;;;;;5060651;28;20225;-76
2023/12/28 01:51:13;;;;;;;6.82;6.22;;;3.90;99.90;;;;;;5056454;28;20226;-77
2023/12/28 01:53:40;;;;;;;7.32;6.72;;;3.90;99.90;;;;;;5060410;28;20209;-77
2023/12/28 01:56:08;;;;;;;6.25;5.75;;;3.90;99.90;;;;;;5056510;28;20222;-77
2023/12/28 01:58:38;;;;;;;7.13;6.53;;;3.80;99.90;;;;;;5060147;28;20223;-77
2023/12/28 02:01:05;;;;;;;7.20;6.50;;;3.70;99.90;;;;;;5058443;28;20748;-77
2023/12/28 02:03:33;;;;;;;7.10;6.50;;;3.70;99.90;;;;;;5059362;28;20295;-77
2023/12/28 02:06:02;;;;;;;5.90;5.35;;;3.70;99.90;;;;;;5057410;28;20214;-78
2023/12/28 02:08:29;;;;;;;6.50;5.95;;;3.70;99.90;;;;;;5058665;28;20591;-77
2023/12/28 02:10:56;;;;;;;6.55;5.95;;;3.70;99.90;;;;;;5058924;28;20249;-76
2023/12/28 02:13:24;;;;;;;6.13;5.63;;;3.70;99.90;;;;;;5057273;28;20214;-77
2023/12/28 02:15:58;;;;;;;6.05;5.55;;;3.70;99.90;;;;;;5057104;28;20828;-76
2023/12/28 02:18:31;;;;;;;6.88;6.25;;;3.60;99.90;;;;;;5058033;28;20225;-77
2023/12/28 02:21:03;;;;;;;6.40;5.90;;;3.60;99.90;;;;;;5058763;28;20232;-77
2023/12/28 02:23:30;;;;;;;6.88;6.35;;;3.50;99.90;;;;;;5059694;28;20194;-77
2023/12/28 02:25:58;;;;;;;6.35;5.82;;;3.50;99.90;;;;;;5058647;28;20359;-77
2023/12/28 02:28:26;;;;;;;6.45;5.95;;;3.50;99.90;;;;;;5060380;28;20233;-78
2023/12/28 02:30:53;;;;;;;6.05;5.55;;;3.50;99.90;;;;;;5055901;28;20214;-78
2023/12/28 02:33:27;;;;;;;6.20;5.70;;;3.50;99.90;;;;;;5058644;28;20704;-77
2023/12/28 02:35:58;;;;;;;6.18;5.65;;;3.50;99.90;;;;;;5057488;28;20231;-76
2023/12/28 02:38:28;;;;;;;5.93;5.43;;;3.60;99.90;;;;;;5057650;28;20726;-78
2023/12/28 02:40:56;;;;;;;6.47;5.97;;;3.60;99.90;;;;;;5054728;28;20217;-77
2023/12/28 02:43:24;;;;;;;6.45;5.95;;;3.60;99.90;;;;;;5058964;28;20208;-77
2023/12/28 02:45:52;;;;;;;7.07;6.47;;;3.70;99.90;;;;;;5055076;28;20229;-77
2023/12/28 02:48:19;;;;;;;6.30;5.75;;;3.60;99.90;;;;;;5059255;28;20222;-78
2023/12/28 02:50:46;;;;;;;5.88;5.35;;;3.70;99.90;;;;;;5059234;28;20226;-77
2023/12/28 02:53:14;;;;;;;6.60;5.95;;;3.60;99.90;;;;;;5058380;28;20878;-77
2023/12/28 02:55:41;;;;;;;7.55;6.63;;;3.60;99.90;;;;;;5056806;28;20257;-76
2023/12/28 02:58:08;;;;;;;6.38;5.88;;;3.50;99.90;;;;;;5057752;28;20225;-77
2023/12/28 03:00:37;;;;;;;6.57;5.90;;;3.50;99.90;;;;;;5055642;28;20260;-77
2023/12/28 03:03:04;;;;;;;6.03;5.63;;;3.50;99.90;;;;;;5055328;28;20201;-76
2023/12/28 03:05:31;;;;;;;6.85;6.18;;;3.50;99.90;;;;;;5056576;28;20226;-77
2023/12/28 03:07:58;;;;;;;6.13;5.65;;;3.60;99.90;;;;;;5058570;28;20224;-77
2023/12/28 03:10:25;;;;;;;6.13;5.72;;;3.50;99.90;;;;;;5056418;28;20214;-77
2023/12/28 03:12:52;;;;;;;6.53;6.00;;;3.50;99.90;;;;;;5057809;28;20218;-77
2023/12/28 03:15:19;;;;;;;7.03;6.43;;;3.50;99.90;;;;;;5058306;28;20225;-78
2023/12/28 03:17:48;;;;;;;6.93;5.97;;;3.40;99.90;;;;;;5057657;28;20229;-76
2023/12/28 03:20:16;;;;;;;6.22;5.72;;;3.40;99.90;;;;;;5057340;28;20223;-76
2023/12/28 03:22:43;;;;;;;6.45;5.95;;;3.40;99.90;;;;;;5059424;28;20209;-77
2023/12/28 03:25:10;;;;;;;6.05;5.55;;;3.30;99.90;;;;;;5059644;28;20218;-78
2023/12/28 03:27:37;;;;;;;6.68;6.10;;;3.30;99.90;;;;;;5061051;28;20202;-78
2023/12/28 03:30:05;;;;;;;6.20;5.60;;;3.30;99.90;;;;;;5061871;28;20214;-77
2023/12/28 03:32:32;;;;;;;6.50;6.00;;;3.30;99.90;;;;;;5060810;28;20217;-78
2023/12/28 03:35:01;;;;;;;6.65;6.13;;;3.30;99.90;;;;;;5059048;28;20287;-76
2023/12/28 03:37:29;;;;;;;6.75;6.15;;;3.40;99.90;;;;;;5060150;28;21771;-77
2023/12/28 03:39:56;;;;;;;6.00;5.47;;;3.40;99.90;;;;;;5059663;28;20217;-77
2023/12/28 03:42:23;;;;;;;7.47;6.78;;;3.40;99.90;;;;;;5061095;28;20209;-78
2023/12/28 03:44:50;;;;;;;7.65;6.95;;;3.40;99.90;;;;;;5060769;28;20222;-78
2023/12/28 03:47:17;;;;;;;6.63;6.05;;;3.40;99.90;;;;;;5064204;28;20202;-77
2023/12/28 03:49:44;;;;;;;6.88;6.22;;;3.30;99.90;;;;;;5061683;28;20723;-76
2023/12/28 03:52:13;;;;;;;6.32;5.72;;;3.30;99.90;;;;;;5057928;28;20239;-77
2023/12/28 03:54:40;;;;;;;6.45;5.85;;;3.20;99.90;;;;;;5061381;28;20206;-78
2023/12/28 03:57:08;;;;;;;6.07;5.57;;;3.20;99.90;;;;;;5064084;28;20206;-77
2023/12/28 03:59:35;;;;;;;6.25;5.75;;;3.10;99.90;;;;;;5066471;28;20228;-77
2023/12/28 04:02:02;;;;;;;6.20;5.70;;;3.10;99.90;;;;;;5062604;28;20209;-78
2023/12/28 04:04:29;;;;;;;6.13;5.63;;;3.10;99.90;;;;;;5059196;28;20681;-77
2023/12/28 04:06:56;;;;;;;6.38;5.85;;;3.10;99.90;;;;;;5064782;28;20198;-79
2023/12/28 04:09:24;;;;;;;6.40;5.90;;;3.20;99.90;;;;;;5058905;28;20272;-78
2023/12/28 04:11:52;;;;;;;5.85;5.38;;;3.30;99.90;;;;;;5061746;28;20861;-77
2023/12/28 04:14:19;;;;;;;5.72;5.22;;;3.30;99.90;;;;;;5060376;28;20205;-76
2023/12/28 04:16:47;;;;;;;5.97;5.53;;;3.40;99.90;;;;;;5064528;28;20249;-77
2023/12/28 04:19:14;;;;;;;6.97;5.72;;;3.40;99.90;;;;;;5061067;28;20233;-77
2023/12/28 04:21:44;;;;;;;6.93;6.35;;;3.40;99.90;;;;;;5064063;28;20226;-77
2023/12/28 04:24:11;;;;;;;6.75;6.15;;;3.40;99.90;;;;;;5059183;28;20200;-78
2023/12/28 04:26:39;;;;;;;6.32;5.82;;;3.40;99.90;;;;;;5061967;28;20229;-75
2023/12/28 04:29:07;;;;;;;6.55;6.05;;;3.40;99.90;;;;;;5062219;28;20226;-76
2023/12/28 04:31:34;;;;;;;6.38;5.82;;;3.40;99.90;;;;;;5061595;28;20219;-77
2023/12/28 04:34:01;;;;;;;6.38;5.80;;;3.40;99.90;;;;;;5060750;28;20214;-76
2023/12/28 04:36:29;;;;;;;6.43;5.93;;;3.40;99.90;;;;;;5060196;28;20214;-77
2023/12/28 04:38:56;;;;;;;6.55;6.00;;;3.40;99.90;;;;;;5060980;28;20228;-78
2023/12/28 04:41:23;;;;;;;6.20;5.70;;;3.40;99.90;;;;;;5059337;28;20233;-77
2023/12/28 04:43:51;;;;;;;5.47;5.07;;;3.40;99.90;;;;;;5063671;28;20194;-77
2023/12/28 04:46:19;;;;;;;6.70;6.20;;;3.40;99.90;;;;;;5061616;28;20222;-76
2023/12/28 04:48:46;;;;;;;5.93;5.43;;;3.40;99.90;;;;;;5067387;28;20238;-77
2023/12/28 04:51:13;;;;;;;6.05;5.55;;;3.40;99.90;;;;;;5063578;28;20622;-78
2023/12/28 04:53:40;;;;;;;6.20;5.78;;;3.30;99.90;;;;;;5060878;28;20226;-78
2023/12/28 04:56:08;;;;;;;6.75;6.15;;;3.30;99.90;;;;;;5059908;28;20214;-77
2023/12/28 04:58:35;;;;;;;5.97;5.38;;;3.30;99.90;;;;;;5062589;28;20229;-76
2023/12/28 05:01:04;;;;;;;6.00;5.50;;;3.30;99.90;;;;;;5055864;28;20214;-78
2023/12/28 05:03:31;;;;;;;5.65;5.25;;;3.20;99.90;;;;;;5061604;28;20213;-76
2023/12/28 05:05:58;;;;;;;6.68;6.18;;;3.20;99.90;;;;;;5057996;28;20222;-77
2023/12/28 05:08:25;;;;;;;7.28;6.68;;;3.20;99.90;;;;;;5060729;28;20248;-75
2023/12/28 05:10:53;;;;;;;7.30;6.70;;;3.30;99.90;;;;;;5056571;28;20222;-78
2023/12/28 05:13:20;;;;;;;7.20;6.60;;;3.20;99.90;;;;;;5060143;28;20228;-77
2023/12/28 05:15:47;;;;;;;6.70;6.10;;;3.20;99.90;;;;;;5062688;28;20229;-78
2023/12/28 05:18:15;;;;;;;6.72;6.22;;;3.00;99.90;;;;;;5062524;28;20210;-77
2023/12/28 05:20:42;;;;;;;6.40;5.90;;;2.90;99.90;;;;;;5061400;28;20218;-77
2023/12/28 05:23:09;;;;;;;6.60;6.00;;;2.80;99.90;;;;;;5062094;28;20209;-77
2023/12/28 05:25:36;;;;;;;6.07;5.50;;;2.70;99.90;;;;;;5064510;28;20853;-77
2023/12/28 05:28:04;;;;;;;6.63;6.13;;;2.70;99.90;;;;;;5060783;28;20272;-77
2023/12/28 05:30:31;;;;;;;6.00;5.60;;;2.70;99.90;;;;;;5057949;28;20850;-77
2023/12/28 05:32:58;;;;;;;6.80;6.30;;;2.60;99.90;;;;;;5061022;28;20222;-77
2023/12/28 05:35:26;;;;;;;6.68;6.18;;;2.50;99.90;;;;;;5061471;28;20214;-77
2023/12/28 05:37:53;;;;;;;7.55;6.80;;;2.50;99.90;;;;;;5061863;28;20649;-77
2023/12/28 05:40:20;;;;;;;6.68;6.07;;;2.40;99.90;;;;;;5060791;28;20275;-77
2023/12/28 05:42:47;;;;;;;6.40;5.90;;;2.30;99.90;;;;;;5060864;28;20595;-78
2023/12/28 05:45:14;;;;;;;6.32;5.82;;;2.40;99.90;;;;;;5061369;28;21058;-76
2023/12/28 05:47:41;;;;;;;8.02;6.07;;;2.30;99.90;;;;;;5060699;28;20202;-77
2023/12/28 05:50:10;;;;;;;6.47;5.88;;;2.40;99.90;;;;;;5062176;28;20834;-77
2023/12/28 05:52:39;;;;;;;6.22;5.72;;;2.40;99.90;;;;;;5055261;28;20936;-78
2023/12/28 05:55:06;;;;;;;6.13;5.63;;;2.40;99.90;;;;;;5061021;28;20286;-77
2023/12/28 05:57:33;;;;;;;6.40;5.88;;;2.50;99.90;;;;;;5060596;28;20740;-77
2023/12/28 06:00:00;;;;;;;6.60;6.10;;;2.50;99.90;;;;;;5061160;28;20221;-77
2023/12/28 06:02:27;;;;;;;6.20;5.70;;;2.60;99.90;;;;;;5060924;28;20217;-77
2023/12/28 06:04:55;;;;;;;6.22;5.63;;;2.60;99.90;;;;;;5057281;28;20253;-76
2023/12/28 06:07:22;;;;;;;6.07;5.57;;;2.60;99.90;;;;;;5058629;28;20205;-77
2023/12/28 06:09:50;;;;;;;6.25;5.75;;;2.60;99.90;;;;;;5058596;28;20727;-77
2023/12/28 06:12:17;;;;;;;6.38;5.78;;;2.60;99.90;;;;;;5062352;28;20739;-77
2023/12/28 06:14:44;;;;;;;6.30;5.80;;;2.60;99.90;;;;;;5059915;28;20222;-76
2023/12/28 06:17:11;;;;;;;5.43;5.03;;;2.70;99.90;;;;;;5061716;28;20217;-77
2023/12/28 06:19:38;;;;;;;6.25;5.75;;;2.70;99.90;;;;;;5060615;28;20229;-77
2023/12/28 06:22:05;;;;;;;6.43;5.93;;;2.80;99.90;;;;;;5062956;28;20204;-77
2023/12/28 06:24:33;;;;;;;6.88;6.38;;;2.80;99.90;;;;;;5058542;28;20198;-76
2023/12/28 06:27:02;;;;;;;6.28;5.78;;;2.80;99.90;;;;;;5062102;28;20260;-77
2023/12/28 06:29:29;;;;;;;6.90;6.40;;;2.80;99.90;;;;;;5058833;28;20226;-77
2023/12/28 06:31:56;;;;;;;6.53;5.93;;;2.90;99.90;;;;;;5062475;28;20202;-77
2023/12/28 06:34:23;;;;;;;6.90;6.30;;;2.90;99.90;;;;;;5062140;28;20586;-77
2023/12/28 06:36:50;;;;;;;6.38;5.97;;;2.90;99.90;;;;;;5057637;28;20209;-77
2023/12/28 06:39:17;;;;;;;6.68;6.18;;;2.90;99.90;;;;;;5062322;28;20221;-77
2023/12/28 06:41:48;;;;;;;7.80;7.20;;;2.90;99.90;;;;;;5060900;28;20214;-78
2023/12/28 06:44:16;;;;;;;7.65;6.85;;;2.80;99.90;;;;;;5056815;28;20222;-77
2023/12/28 06:46:43;;;;;;;7.22;6.63;;;2.80;99.90;;;;;;5062233;28;20236;-76
2023/12/28 06:49:10;;;;;;;7.28;6.68;;;2.80;99.90;;;;;;5064489;28;20226;-78
2023/12/28 06:51:37;;;;;;;8.00;7.30;;;2.80;99.90;;;;;;5059502;28;20777;-77
2023/12/28 06:54:05;;;;;;;7.43;6.90;;;2.80;99.90;;;;;;5059465;28;20214;-77
2023/12/28 06:56:32;;;;;;;7.32;6.68;;;2.80;99.90;;;;;;5060492;28;20214;-76
2023/12/28 06:58:59;;;;;;;7.50;6.90;;;2.80;99.90;;;;;;5059447;28;20593;-77
2023/12/28 07:01:27;;;;;;;7.50;6.90;;;2.80;99.90;;;;;;5061758;28;20217;-77
2023/12/28 07:03:54;;;;;;;7.47;6.85;;;2.90;99.90;;;;;;5057806;28;20228;-78
2023/12/28 07:06:21;;;;;;;7.60;6.90;;;2.80;99.90;;;;;;5062991;28;20222;-77
2023/12/28 07:08:48;;;;;;;7.70;7.10;;;2.90;99.90;;;;;;5064508;28;20222;-77
2023/12/28 07:11:16;;;;;;;7.32;6.72;;;2.90;99.90;;;;;;5056488;28;20215;-78
2023/12/28 07:13:43;;;;;;;7.07;6.47;;;3.00;99.90;;;;;;5061448;28;20271;-77
2023/12/28 07:16:10;;;;;;;7.50;6.85;;;3.00;99.90;;;;;;5063510;28;20598;-78
2023/12/28 07:18:38;;;;;;;7.50;6.90;;;3.00;99.90;;;;;;5065599;28;20226;-77
2023/12/28 07:21:09;;;;;;;7.82;7.00;;;3.00;99.90;;;;;;5066943;28;22069;-77
2023/12/28 07:23:36;;;;;;;7.13;6.53;;;2.90;99.90;;;;;;5062368;28;20213;-78
2023/12/28 07:26:03;;;;;;;7.45;6.80;;;2.90;99.90;;;;;;5061806;28;20221;-77
2023/12/28 07:28:30;;;;;;;7.32;6.72;;;2.70;99.90;;;;;;5055064;28;20249;-77
2023/12/28 07:30:57;;;;;;;7.10;6.50;;;2.60;99.90;;;;;;5061165;28;20222;-77
2023/12/28 07:33:24;;;;;;;7.13;6.32;;;2.60;99.90;;;;;;5063673;28;20299;-77
2023/12/28 07:35:53;;;;;;;7.35;6.75;;;2.70;99.90;;;;;;5057060;28;20242;-77
2023/12/28 07:38:20;;;;;;;7.50;6.82;;;2.70;99.90;;;;;;5061697;28;20213;-78
2023/12/28 07:40:47;;;;;;;8.52;7.72;;;2.70;99.90;;;;;;5060640;28;20225;-78
2023/12/28 07:43:14;;;;;;;7.50;6.78;;;2.80;99.90;;;;;;5061472;28;20206;-78
2023/12/28 07:45:41;;;;;;;6.85;6.28;;;2.80;99.90;;;;;;5058973;28;20218;-77
2023/12/28 07:48:08;;;;;;;7.93;7.22;;;2.80;99.90;;;;;;5061427;28;20233;-77
2023/12/28 07:50:35;;;;;;;7.20;6.60;;;2.80;99.90;;;;;;5062460;28;20222;-76
2023/12/28 07:53:04;;;;;;;7.05;6.55;;;2.80;99.90;;;;;;5067379;28;20198;-76
2023/12/28 07:55:31;;;;;;;8.55;7.80;;;2.80;99.90;;;;;;5059795;28;20647;-78
2023/12/28 07:57:58;;;;;;;8.52;7.72;;;2.90;99.90;;;;;;5063109;28;20218;-77
2023/12/28 08:00:25;;;;;;;8.95;8.15;;;3.00;99.90;;;;;;5059843;28;20221;-77
2023/12/28 08:02:52;;;;;;;8.80;8.00;;;3.10;99.90;;;;;;5057546;28;20199;-77
2023/12/28 08:05:19;;;;;;;8.77;7.97;;;3.20;99.90;;;;;;5060633;28;20763;-77
2023/12/28 08:07:46;;;;;;;7.47;6.82;;;3.20;99.90;;;;;;5054727;28;20723;-78
2023/12/28 08:10:15;;;;;;;7.85;7.15;;;3.20;99.90;;;;;;5057138;28;20232;-77
2023/12/28 08:12:43;;;;;;;8.93;6.95;;;3.30;99.90;;;;;;5057115;28;20206;-77
2023/12/28 08:15:10;;;;;;;7.70;7.07;;;3.40;99.90;;;;;;5059820;28;20236;-77
2023/12/28 08:17:37;;;;;;;8.05;7.38;;;3.40;99.90;;;;;;5058116;28;20206;-77
2023/12/28 08:20:06;;;;;;;7.35;6.75;;;3.40;99.90;;;;;;5055382;28;20217;-78
2023/12/28 08:22:33;;;;;;;7.57;6.97;;;3.50;99.90;;;;;;5057149;28;20840;-78
2023/12/28 08:25:00;;;;;;;8.60;7.85;;;3.50;99.90;;;;;;5054804;28;20897;-78
2023/12/28 08:27:29;;;;;;;8.80;8.07;;;3.50;99.90;;;;;;5060810;28;20203;-77
2023/12/28 08:29:56;;;;;;;8.80;7.90;;;3.60;99.90;;;;;;5062921;28;20944;-76
2023/12/28 08:32:23;;;;;;;10.00;9.10;;;3.70;99.90;;;;;;5057082;28;20211;-79
2023/12/28 08:34:50;;;;;;;9.88;8.93;;;3.80;99.90;;;;;;5056559;28;20260;-78
2023/12/28 08:37:17;;;;;;;10.35;9.35;;;3.80;99.90;;;;;;5061050;28;20206;-78
2023/12/28 08:39:44;;;;;;;10.02;9.13;;;3.80;99.90;;;;;;5062705;28;20237;-77
2023/12/28 08:42:11;;;;;;;11.10;9.77;;;3.80;99.90;;;;;;5065045;28;20293;-77
2023/12/28 08:44:40;;;;;;;10.60;9.60;;;3.80;99.90;;;;;;5063273;28;20194;-77
2023/12/28 08:47:07;;;;;;;10.75;9.75;;;3.80;99.90;;;;;;5066023;28;20207;-77
2023/12/28 08:49:34;;;;;;;9.57;8.68;;;4.00;99.90;;;;;;5060179;28;20218;-78
2023/12/28 08:52:01;;;;;;;9.60;8.70;;;4.40;99.90;;;;;;5065305;28;20213;-78
2023/12/28 08:54:28;;;;;;;8.70;7.90;;;4.60;99.90;;;;;;5063083;28;20225;-78
2023/12/28 08:56:55;;;;;;;9.57;8.77;;;4.90;99.90;;;;;;5063508;28;20209;-77
2023/12/28 08:59:22;;;;;;;9.32;8.40;;;5.00;99.90;;;;;;5064377;28;20253;-76
2023/12/28 09:01:54;;;;;;;9.52;8.57;;;4.90;99.90;;;;;;5063294;28;20987;-77
2023/12/28 09:04:21;;;;;;;8.93;8.13;;;4.80;99.90;;;;;;5061594;28;20206;-77
2023/12/28 09:06:48;;;;;;;9.45;8.52;;;4.60;99.90;;;;;;5057299;28;20227;-77
2023/12/28 09:09:15;;;;;;;7.93;7.32;;;4.50;99.90;;;;;;5062070;28;20229;-77
2023/12/28 09:11:42;;;;;;;8.80;8.00;;;4.30;99.90;;;;;;5059976;28;20221;-77
2023/12/28 09:14:09;;;;;;;8.77;7.97;;;4.20;99.90;;;;;;5054295;28;20918;-77
2023/12/28 09:16:37;;;;;;;8.88;7.97;;;4.20;99.90;;;;;;5052344;28;20222;-78
2023/12/28 09:19:05;;;;;;;8.07;7.38;;;4.00;99.90;;;;;;5058285;28;20289;-78
2023/12/28 09:21:32;;;;;;;8.73;8.02;;;4.00;99.90;;;;;;5062115;28;20218;-77
2023/12/28 09:23:59;;;;;;;9.35;8.45;;;3.90;99.90;;;;;;5052980;28;20198;-76
2023/12/28 09:26:26;;;;;;;9.45;8.65;;;4.10;99.90;;;;;;5054679;28;20221;-77
2023/12/28 09:28:54;;;;;;;8.68;7.97;;;4.30;99.90;;;;;;5059500;28;20214;-80
2023/12/28 09:31:21;;;;;;;8.15;7.38;;;4.50;99.90;;;;;;5055482;28;20239;-78
2023/12/28 09:33:48;;;;;;;8.25;7.53;;;4.60;99.90;;;;;;5052272;28;20578;-77
2023/12/28 09:36:17;;;;;;;8.70;7.90;;;4.70;99.90;;;;;;5054609;28;20896;-78
2023/12/28 09:38:44;;;;;;;8.43;7.63;;;4.80;99.90;;;;;;5065713;28;20273;-78
2023/12/28 09:41:14;;;;;;;8.70;7.90;;;4.80;99.90;;;;;;5067511;28;20949;-78
2023/12/28 09:43:49;;;;;;;8.52;7.72;;;4.80;99.90;;;;;;5058039;28;20322;-78
2023/12/28 09:46:16;;;;;;;8.23;7.43;;;4.80;99.90;;;;;;5059667;28;20244;-77
2023/12/28 09:48:44;;;;;;;8.00;7.30;;;4.70;99.90;;;;;;5059577;28;20225;-78
2023/12/28 09:51:11;;;;;;;8.77;7.88;;;4.80;99.90;;;;;;5061442;28;20229;-75
2023/12/28 09:53:40;;;;;;;8.88;8.07;;;4.90;99.90;;;;;;5058771;28;20209;-76
2023/12/28 09:56:08;;;;;;;8.77;7.97;;;5.10;99.90;;;;;;5057378;28;20233;-77
2023/12/28 09:58:37;;;;;;;9.23;8.05;;;5.60;99.90;;;;;;5064570;28;20222;-80
2023/12/28 10:01:06;;;;;;;7.97;7.28;;;5.70;99.90;;;;;;5063396;28;20710;-78
2023/12/28 10:03:33;;;;;;;8.60;7.72;;;5.60;99.90;;;;;;5064227;28;20720;-79
2023/12/28 10:06:00;;;;;;;7.70;7.00;;;5.50;99.90;;;;;;5062528;28;20312;-80
2023/12/28 10:08:27;;;;;;;8.85;8.00;;;5.50;99.90;;;;;;5062308;28;20226;-78
2023/12/28 10:10:58;;;;;;;9.45;8.55;;;5.50;99.90;;;;;;5063047;28;20680;-79
2023/12/28 10:13:26;;;;;;;8.50;7.80;;;5.70;99.90;;;;;;5059838;28;20799;-78
2023/12/28 10:15:53;;;;;;;8.68;7.95;;;5.60;99.90;;;;;;5059814;28;20230;-77
2023/12/28 10:18:20;;;;;;;8.73;7.93;;;5.60;99.90;;;;;;5063321;28;20231;-79
2023/12/28 10:20:50;;;;;;;8.38;7.57;;;5.50;99.90;;;;;;5056977;28;20691;-77
2023/12/28 10:23:18;;;;;;;8.38;7.57;;;5.50;99.90;;;;;;5054918;28;20364;-77
2023/12/28 10:25:45;;;;;;;10.48;7.75;;;5.50;99.90;;;;;;5056532;28;20246;-78
2023/12/28 10:28:15;;;;;;;7.88;7.18;;;6.10;99.90;;;;;;5055092;28;20214;-79
2023/12/28 10:30:42;;;;;;;8.23;6.90;;;6.50;99.90;;;;;;5056125;28;20817;-79
2023/12/28 10:33:09;;;;;;;11.73;7.57;;;6.50;99.90;;;;;;5052163;28;20206;-78
2023/12/28 10:35:36;;;;;;;8.40;7.43;;;6.50;99.90;;;;;;5056706;28;20820;-77
2023/12/28 10:38:05;;;;;;;8.82;8.02;;;6.50;99.90;;;;;;5053840;28;20218;-77
2023/12/28 10:40:32;;;;;;;7.43;6.72;;;6.40;99.90;;;;;;5057342;28;20222;-78
2023/12/28 10:43:02;;;;;;;7.68;6.97;;;6.40;99.90;;;;;;5059760;28;20644;-78
2023/12/28 10:45:34;;;;;;;8.73;7.90;;;6.50;99.90;;;;;;5057384;28;20307;-78
2023/12/28 10:48:07;;;;;;;8.95;8.15;;;6.50;99.90;;;;;;5051427;28;20305;-78
2023/12/28 10:50:40;;;;;;;8.65;7.85;;;6.50;99.90;;;;;;5055888;28;20245;-79
2023/12/28 10:53:21;;;;;;;8.82;8.02;;;6.30;99.90;;;;;;5057808;28;20245;-78
2023/12/28 10:55:59;;;;;;;9.63;8.20;;;6.20;99.90;;;;;;5058124;28;20217;-77
2023/12/28 10:58:34;;;;;;;8.55;7.72;;;6.00;99.90;;;;;;5058349;28;20608;-76
2023/12/28 11:01:09;;;;;;;8.45;7.32;;;5.80;99.90;;;;;;5063799;28;20228;-77
2023/12/28 11:03:41;;;;;;;7.90;7.20;;;5.70;99.90;;;;;;5056787;28;20206;-77
2023/12/28 11:06:10;;;;;;;8.15;7.45;;;5.60;99.90;;;;;;5055763;28;20229;-77
2023/12/28 11:08:39;;;;;;;8.93;8.10;;;5.50;99.90;;;;;;5051777;28;20874;-78
2023/12/28 11:11:08;;;;;;;8.23;7.43;;;5.40;99.90;;;;;;5054325;28;20222;-75
2023/12/28 11:13:36;;;;;;;7.97;7.28;;;5.40;99.90;;;;;;5052328;28;20293;-77
2023/12/28 11:16:06;;;;;;;9.07;7.35;;;5.40;99.90;;;;;;5055603;28;20902;-78
2023/12/28 11:18:33;;;;;;;8.82;7.95;;;5.50;99.90;;;;;;5056547;28;20680;-79
2023/12/28 11:21:00;;;;;;;7.40;6.78;;;5.50;99.90;;;;;;5056331;28;20986;-78
2023/12/28 11:23:27;;;;;;;7.43;6.82;;;5.50;99.90;;;;;;5054157;28;20210;-79
2023/12/28 11:25:54;;;;;;;8.75;7.50;;;5.60;99.90;;;;;;5049212;28;20231;-79
2023/12/28 11:28:24;;;;;;;7.97;7.22;;;5.60;99.90;;;;;;5050460;28;20222;-78
2023/12/28 11:30:52;;;;;;;8.10;7.40;;;5.50;99.90;;;;;;5047770;28;20228;-78
2023/12/28 11:33:21;;;;;;;8.27;7.32;;;5.50;99.90;;;;;;5043549;28;20206;-78
2023/12/28 11:35:49;;;;;;;8.25;7.43;;;5.50;99.90;;;;;;5044022;28;20237;-79
2023/12/28 11:38:17;;;;;;;7.60;6.90;;;5.50;99.90;;;;;;5048040;28;20309;-77
2023/12/28 11:40:47;;;;;;;8.30;7.50;;;5.60;99.90;;;;;;5040384;28;20234;-78
2023/12/28 11:43:21;;;;;;;7.57;6.88;;;5.70;99.90;;;;;;5037877;28;20294;-78
2023/12/28 11:45:50;;;;;;;9.32;8.43;;;5.70;99.90;;;;;;5036165;28;20230;-78
2023/12/28 11:48:26;;;;;;;10.35;7.95;;;5.80;99.90;;;;;;5054258;28;20318;-78
2023/12/28 11:50:56;;;;;;;8.60;7.55;;;5.80;99.90;;;;;;5054273;28;20220;-77
2023/12/28 11:53:23;;;;;;;10.88;9.00;;;5.80;99.90;;;;;;5053063;28;20729;-75
2023/12/28 11:55:50;;;;;;;8.55;7.75;;;5.80;99.90;;;;;;5053659;28;20233;-78
2023/12/28 11:58:18;;;;;;;8.98;8.18;;;5.80;99.90;;;;;;5055859;28;20222;-78
2023/12/28 12:00:46;;;;;;;8.52;7.78;;;5.80;99.90;;;;;;5050216;28;20246;-78
2023/12/28 12:03:13;;;;;;;10.43;8.05;;;5.80;99.90;;;;;;5055629;28;20210;-78
2023/12/28 12:05:41;;;;;;;7.88;7.18;;;5.90;99.90;;;;;;5058058;28;20218;-79
2023/12/28 12:08:13;;;;;;;7.35;6.65;;;5.90;99.90;;;;;;5061122;28;20692;-79
2023/12/28 12:10:40;;;;;;;7.68;6.97;;;5.80;99.90;;;;;;5058421;28;20233;-78
2023/12/28 12:13:07;;;;;;;7.55;6.75;;;5.70;99.90;;;;;;5062371;28;20202;-79
2023/12/28 12:15:35;;;;;;;7.25;6.55;;;5.70;99.90;;;;;;5060072;28;20230;-77
2023/12/28 12:18:02;;;;;;;8.15;7.25;;;5.80;99.90;;;;;;5064852;28;20590;-78
2023/12/28 12:20:30;;;;;;;8.50;7.70;;;5.80;99.90;;;;;;5061092;28;20329;-78
2023/12/28 12:23:00;;;;;;;7.13;6.63;;;5.80;99.90;;;;;;5062767;28;20209;-79
2023/12/28 12:25:29;;;;;;;6.75;6.15;;;5.70;99.90;;;;;;5058314;28;20316;-77
2023/12/28 12:27:56;;;;;;;7.43;6.72;;;5.70;99.90;;;;;;5059568;28;20348;-79
2023/12/28 12:30:23;;;;;;;7.32;6.63;;;5.80;99.90;;;;;;5064251;28;20206;-76
2023/12/28 12:32:51;;;;;;;7.20;6.47;;;5.90;99.90;;;;;;5063031;28;20586;-77
2023/12/28 12:35:21;;;;;;;7.00;6.40;;;6.00;99.90;;;;;;5062748;28;20221;-79
2023/12/28 12:37:49;;;;;;;7.50;6.85;;;6.10;99.90;;;;;;5063255;28;20198;-79
2023/12/28 12:40:19;;;;;;;6.90;6.30;;;6.00;99.90;;;;;;5063904;28;20271;-78
2023/12/28 12:42:54;;;;;;;7.53;6.70;;;5.90;99.90;;;;;;5061344;28;20802;-79
2023/12/28 12:45:21;;;;;;;7.13;6.57;;;5.90;99.90;;;;;;5063565;28;20229;-78
2023/12/28 12:47:49;;;;;;;6.82;6.22;;;5.90;99.90;;;;;;5062200;28;20605;-79
2023/12/28 12:50:16;;;;;;;6.85;6.25;;;6.00;99.90;;;;;;5062483;28;20559;-77
2023/12/28 12:52:45;;;;;;;6.60;6.10;;;6.10;99.90;;;;;;5057321;28;20229;-77
2023/12/28 12:55:12;;;;;;;6.75;6.15;;;6.20;99.90;;;;;;5056775;28;20214;-78
2023/12/28 12:57:41;;;;;;;5.68;5.18;;;6.30;99.90;;;;;;5060548;28;20226;-78
2023/12/28 13:00:11;;;;;;;6.50;5.78;;;6.40;99.90;;;;;;5065235;28;20206;-79